createdAt,value
2018-11-06T00:00:58.891Z,12.41
2018-11-06T00:03:48.338Z,12.41
2018-11-06T00:06:35.675Z,12.43
2018-11-06T00:09:05.256Z,12.46
2018-11-06T00:11:34.254Z,12.49
2018-11-06T00:14:07.621Z,12.50
2018-11-06T00:16:40.908Z,12.52
2018-11-06T00:19:13.548Z,12.53
2018-11-06T00:21:45.823Z,12.55
2018-11-06T00:24:18.674Z,12.55
2018-11-06T00:26:51.380Z,12.57
2018-11-06T00:29:20.442Z,12.57
2018-11-06T00:31:49.588Z,12.59
2018-11-06T00:34:18.828Z,12.59
2018-11-06T00:36:47.832Z,12.60
2018-11-06T00:39:16.875Z,12.60
2018-11-06T00:41:45.917Z,12.59
2018-11-06T00:44:14.924Z,12.60
2018-11-06T00:46:43.913Z,12.62
2018-11-06T00:49:13.053Z,12.63
2018-11-06T00:51:42.127Z,12.64
2018-11-06T00:54:11.242Z,12.64
2018-11-06T00:56:40.306Z,12.65
2018-11-06T00:59:10.167Z,12.67
2018-11-06T01:01:39.215Z,12.66
2018-11-06T01:04:10.667Z,12.68
2018-11-06T01:06:39.747Z,12.68
2018-11-06T01:09:11.767Z,12.69
2018-11-06T01:11:41.533Z,12.71
2018-11-06T01:14:10.637Z,12.73
2018-11-06T01:16:40.307Z,12.73
2018-11-06T01:19:10.118Z,12.73
2018-11-06T01:21:39.295Z,12.73
2018-11-06T01:24:08.984Z,12.74
2018-11-06T01:26:38.025Z,12.74
2018-11-06T01:29:07.748Z,12.75
2018-11-06T01:31:36.792Z,12.76
2018-11-06T01:34:06.001Z,12.76
2018-11-06T01:36:35.017Z,12.77
2018-11-06T01:39:05.038Z,12.78
2018-11-06T01:41:34.116Z,12.76
2018-11-06T01:44:03.387Z,12.78
2018-11-06T01:46:32.426Z,12.77
2018-11-06T01:49:01.520Z,12.77
2018-11-06T01:51:30.568Z,12.77
2018-11-06T01:53:59.621Z,12.76
2018-11-06T01:56:28.662Z,12.77
2018-11-06T01:58:57.716Z,12.75
2018-11-06T02:01:26.712Z,12.76
2018-11-06T02:03:55.782Z,12.76
2018-11-06T02:06:24.871Z,12.76
2018-11-06T02:08:53.936Z,12.76
2018-11-06T02:11:23.014Z,12.75
2018-11-06T02:13:52.142Z,12.76
2018-11-06T02:16:21.340Z,12.75
2018-11-06T02:18:50.351Z,12.74
2018-11-06T02:21:19.425Z,12.74
2018-11-06T02:23:48.562Z,12.73
2018-11-06T02:26:17.655Z,12.73
2018-11-06T02:28:46.688Z,12.73
2018-11-06T02:31:15.988Z,12.74
2018-11-06T02:33:45.073Z,12.74
2018-11-06T02:36:14.228Z,12.74
2018-11-06T02:38:43.341Z,12.74
2018-11-06T02:41:12.417Z,12.75
2018-11-06T02:43:41.579Z,12.75
2018-11-06T02:46:11.067Z,12.76
2018-11-06T02:48:40.184Z,12.76
2018-11-06T02:51:09.264Z,12.76
2018-11-06T02:53:38.300Z,12.77
2018-11-06T02:56:07.843Z,12.77
2018-11-06T02:58:36.883Z,12.78
2018-11-06T03:01:06.180Z,12.79
2018-11-06T03:03:40.812Z,12.79
2018-11-06T03:06:11.138Z,12.79
2018-11-06T03:08:40.534Z,12.79
2018-11-06T03:11:09.712Z,12.78
2018-11-06T03:13:38.859Z,12.79
2018-11-06T03:16:07.977Z,12.80
2018-11-06T03:18:37.018Z,12.81
2018-11-06T03:21:06.152Z,12.81
2018-11-06T03:23:35.281Z,12.81
2018-11-06T03:26:04.409Z,12.82
2018-11-06T03:28:33.457Z,12.82
2018-11-06T03:31:02.581Z,12.83
2018-11-06T03:33:31.675Z,12.82
2018-11-06T03:36:00.769Z,12.82
2018-11-06T03:38:29.897Z,12.82
2018-11-06T03:40:58.938Z,12.83
2018-11-06T03:43:27.954Z,12.84
2018-11-06T03:45:57.124Z,12.84
2018-11-06T03:48:26.161Z,12.83
2018-11-06T03:50:55.268Z,12.83
2018-11-06T03:53:24.322Z,12.84
2018-11-06T03:55:53.403Z,12.84
2018-11-06T03:58:22.462Z,12.84
2018-11-06T04:00:51.594Z,12.84
2018-11-06T04:03:20.604Z,12.84
2018-11-06T04:05:49.956Z,12.84
2018-11-06T04:08:19.000Z,12.84
2018-11-06T04:10:48.030Z,12.84
2018-11-06T04:13:17.090Z,12.85
2018-11-06T04:15:46.119Z,12.86
2018-11-06T04:18:15.197Z,12.85
2018-11-06T04:20:44.224Z,12.86
2018-11-06T04:23:13.296Z,12.86
2018-11-06T04:25:42.424Z,12.85
2018-11-06T04:28:11.488Z,12.87
2018-11-06T04:30:40.615Z,12.85
2018-11-06T04:33:09.722Z,12.85
2018-11-06T04:35:38.774Z,12.86
2018-11-06T04:38:07.838Z,12.86
2018-11-06T04:40:36.860Z,12.86
2018-11-06T04:43:06.315Z,12.86
2018-11-06T04:45:35.341Z,12.85
2018-11-06T04:48:04.361Z,12.85
2018-11-06T04:50:33.446Z,12.85
2018-11-06T04:53:03.077Z,12.85
2018-11-06T04:55:32.108Z,12.84
2018-11-06T04:58:01.148Z,12.84
2018-11-06T05:00:30.248Z,12.84
2018-11-06T05:02:59.339Z,12.85
2018-11-06T05:05:28.392Z,12.84
2018-11-06T05:07:57.426Z,12.85
2018-11-06T05:10:26.482Z,12.84
2018-11-06T05:12:55.557Z,12.83
2018-11-06T05:15:24.622Z,12.84
2018-11-06T05:17:53.663Z,12.84
2018-11-06T05:20:22.777Z,12.85
2018-11-06T05:22:51.807Z,12.84
2018-11-06T05:25:20.888Z,12.84
2018-11-06T05:27:49.892Z,12.85
2018-11-06T05:30:18.924Z,12.85
2018-11-06T05:32:48.010Z,12.85
2018-11-06T05:35:17.057Z,12.86
2018-11-06T05:37:46.955Z,12.85
2018-11-06T05:40:26.949Z,12.84
2018-11-06T05:42:56.006Z,12.83
2018-11-06T05:45:25.118Z,12.84
2018-11-06T05:47:54.133Z,12.86
2018-11-06T05:50:23.283Z,12.86
2018-11-06T05:52:52.945Z,12.86
2018-11-06T05:55:21.966Z,12.86
2018-11-06T05:57:51.012Z,12.85
2018-11-06T06:00:20.823Z,12.84
2018-11-06T06:02:49.908Z,12.83
2018-11-06T06:05:18.973Z,12.83
2018-11-06T06:07:48.034Z,12.83
2018-11-06T06:10:17.075Z,12.82
2018-11-06T06:12:46.128Z,12.83
2018-11-06T06:15:15.168Z,12.83
2018-11-06T06:17:44.216Z,12.82
2018-11-06T06:20:13.313Z,12.83
2018-11-06T06:22:42.615Z,12.83
2018-11-06T06:25:11.628Z,12.84
2018-11-06T06:27:40.728Z,12.85
2018-11-06T06:30:12.626Z,12.86
2018-11-06T06:32:41.812Z,12.87
2018-11-06T06:35:12.108Z,12.87
2018-11-06T06:37:41.427Z,12.86
2018-11-06T06:40:12.805Z,12.87
2018-11-06T06:42:42.514Z,12.88
2018-11-06T06:45:13.211Z,12.87
2018-11-06T06:47:42.333Z,12.87
2018-11-06T06:50:13.481Z,12.86
2018-11-06T06:52:42.889Z,12.86
2018-11-06T06:55:12.996Z,12.85
2018-11-06T06:57:42.849Z,12.83
2018-11-06T07:00:17.955Z,12.84
2018-11-06T07:02:47.137Z,12.84
2018-11-06T07:05:17.549Z,12.84
2018-11-06T07:07:47.402Z,12.83
2018-11-06T07:10:18.669Z,12.83
2018-11-06T07:12:48.500Z,12.83
2018-11-06T07:15:18.882Z,12.83
2018-11-06T07:17:48.997Z,12.83
2018-11-06T07:20:20.673Z,12.83
2018-11-06T07:22:49.680Z,12.83
2018-11-06T07:25:18.812Z,12.83
2018-11-06T07:27:48.588Z,12.84
2018-11-06T07:30:20.866Z,12.83
2018-11-06T07:32:50.119Z,12.84
2018-11-06T07:35:19.937Z,12.86
2018-11-06T07:37:48.950Z,12.84
2018-11-06T07:40:19.375Z,12.83
2018-11-06T07:42:48.463Z,12.84
2018-11-06T07:45:18.794Z,12.82
2018-11-06T07:47:48.004Z,12.81
2018-11-06T07:50:17.214Z,12.82
2018-11-06T07:52:46.455Z,12.84
2018-11-06T07:55:16.907Z,12.87
2018-11-06T07:57:46.020Z,12.88
2018-11-06T08:00:17.576Z,12.89
2018-11-06T08:02:47.548Z,12.88
2018-11-06T08:05:17.080Z,12.89
2018-11-06T08:07:47.013Z,12.88
2018-11-06T08:10:17.095Z,12.91
2018-11-06T08:12:48.686Z,12.92
2018-11-06T08:15:17.919Z,12.95
2018-11-06T08:17:47.164Z,12.99
2018-11-06T08:20:16.400Z,13.00
2018-11-06T08:22:45.436Z,13.03
2018-11-06T08:25:15.881Z,13.07
2018-11-06T08:27:45.449Z,13.11
2018-11-06T08:30:14.893Z,13.14
2018-11-06T08:32:45.373Z,13.16
2018-11-06T08:35:15.449Z,13.18
2018-11-06T08:37:45.022Z,13.19
2018-11-06T08:40:16.166Z,13.19
2018-11-06T08:42:45.492Z,13.21
2018-11-06T08:45:15.569Z,13.23
2018-11-06T08:47:46.188Z,13.27
2018-11-06T08:50:17.185Z,13.30
2018-11-06T08:52:46.273Z,13.34
2018-11-06T08:55:15.984Z,13.38
2018-11-06T08:57:45.592Z,13.43
2018-11-06T09:00:16.743Z,13.47
2018-11-06T09:02:47.587Z,13.50
2018-11-06T09:05:17.405Z,13.51
2018-11-06T09:07:46.544Z,13.54
2018-11-06T09:10:16.467Z,13.54
2018-11-06T09:12:45.578Z,13.55
2018-11-06T09:15:15.678Z,13.54
2018-11-06T09:17:45.732Z,13.57
2018-11-06T09:20:16.036Z,13.59
2018-11-06T09:22:45.205Z,13.58
2018-11-06T09:25:15.594Z,13.64
2018-11-06T09:27:45.107Z,13.64
2018-11-06T09:30:19.575Z,13.64
2018-11-06T09:32:48.719Z,13.65
2018-11-06T09:35:17.800Z,13.68
2018-11-06T09:37:46.921Z,13.66
2018-11-06T09:40:17.557Z,13.65
2018-11-06T09:42:46.659Z,13.64
2018-11-06T09:45:16.049Z,13.61
2018-11-06T09:47:45.226Z,13.63
2018-11-06T09:56:09.378Z,13.68
2018-11-06T09:58:39.295Z,13.70
2018-11-06T10:01:08.509Z,13.70
2018-11-06T10:03:37.755Z,13.70
2018-11-06T10:06:08.295Z,13.69
2018-11-06T10:08:37.443Z,13.69
2018-11-06T10:11:06.680Z,13.69
2018-11-06T10:13:36.639Z,13.69
2018-11-06T10:16:06.159Z,13.68
2018-11-06T10:18:35.548Z,13.65
2018-11-06T10:21:04.777Z,13.64
2018-11-06T10:23:34.007Z,13.60
2018-11-06T10:26:03.942Z,13.62
2018-11-06T10:28:33.736Z,13.61
2018-11-06T10:31:03.679Z,13.61
2018-11-06T10:33:32.994Z,13.61
2018-11-06T10:36:02.162Z,13.64
2018-11-06T10:38:31.321Z,13.63
2018-11-06T10:41:00.528Z,13.64
2018-11-06T10:43:29.591Z,13.61
2018-11-06T10:46:25.436Z,13.70
2018-11-06T10:48:54.526Z,13.76
2018-11-06T10:51:23.673Z,13.83
2018-11-06T10:53:52.723Z,13.91
2018-11-06T10:56:21.802Z,13.99
2018-11-06T10:58:51.045Z,14.01
2018-11-06T11:01:25.454Z,14.02
2018-11-06T11:03:59.660Z,14.03
2018-11-06T11:06:29.179Z,14.02
2018-11-06T11:08:58.355Z,14.06
2018-11-06T11:11:27.624Z,14.08
2018-11-06T11:14:00.125Z,14.11
2018-11-06T11:16:30.590Z,14.14
2018-11-06T11:19:00.363Z,14.17
2018-11-06T11:21:29.655Z,14.20
2018-11-06T11:23:58.880Z,14.19
2018-11-06T11:26:28.125Z,14.18
2018-11-06T11:28:57.969Z,14.17
2018-11-06T11:31:28.011Z,14.20
2018-11-06T11:33:57.196Z,14.27
2018-11-06T11:36:26.279Z,14.35
2018-11-06T11:38:55.983Z,14.44
2018-11-06T11:41:25.606Z,14.51
2018-11-06T11:44:01.696Z,14.50
2018-11-06T11:46:30.855Z,14.55
2018-11-06T11:49:00.966Z,14.53
2018-11-06T11:51:31.522Z,14.50
2018-11-06T11:54:01.693Z,14.49
2018-11-06T11:56:31.633Z,14.44
2018-11-06T11:59:00.819Z,14.41
2018-11-06T12:01:29.929Z,14.34
2018-11-06T12:04:00.096Z,14.34
2018-11-06T12:06:29.093Z,14.31
2018-11-06T12:08:58.224Z,14.28
2018-11-06T12:11:27.336Z,14.25
2018-11-06T12:13:57.648Z,14.21
2018-11-06T12:16:26.799Z,14.17
2018-11-06T12:18:56.104Z,14.11
2018-11-06T12:21:25.334Z,14.10
2018-11-06T12:23:54.553Z,14.06
2018-11-06T12:26:23.854Z,13.99
2018-11-06T12:28:54.755Z,14.00
2018-11-06T12:31:31.341Z,13.94
2018-11-06T12:34:02.551Z,13.94
2018-11-06T12:36:32.800Z,13.92
2018-11-06T12:39:03.876Z,13.88
2018-11-06T12:41:33.136Z,13.89
2018-11-06T12:44:02.438Z,13.86
2018-11-06T12:46:33.273Z,13.84
2018-11-06T12:49:02.396Z,13.80
2018-11-06T12:51:32.618Z,13.83
2018-11-06T12:54:01.825Z,13.83
2018-11-06T12:56:31.559Z,13.84
2018-11-06T12:59:04.713Z,13.84
2018-11-06T13:01:35.636Z,13.87
2018-11-06T13:04:04.866Z,13.90
2018-11-06T13:06:33.998Z,13.93
2018-11-06T13:09:03.169Z,13.95
2018-11-06T13:11:32.364Z,13.98
2018-11-06T13:14:02.444Z,13.99
2018-11-06T13:16:31.990Z,14.01
2018-11-06T13:19:06.216Z,14.03
2018-11-06T13:21:35.570Z,14.06
2018-11-06T13:24:04.872Z,14.05
2018-11-06T13:26:34.182Z,14.08
2018-11-06T13:30:18.478Z,14.11
2018-11-06T13:32:48.502Z,14.13
2018-11-06T13:35:17.670Z,14.16
2018-11-06T13:37:46.801Z,14.16
2018-11-06T13:40:17.124Z,14.18
2018-11-06T13:42:47.796Z,14.20
2018-11-06T13:45:19.207Z,14.23
2018-11-06T13:47:48.585Z,14.21
2018-11-06T13:50:18.597Z,14.29
2018-11-06T13:52:48.165Z,14.25
2018-11-06T13:55:18.385Z,14.28
2018-11-06T13:57:48.122Z,14.28
2018-11-06T14:00:19.636Z,14.27
2018-11-06T14:02:49.361Z,14.24
2018-11-06T14:05:19.200Z,14.19
2018-11-06T14:07:48.483Z,14.20
2018-11-06T14:10:17.763Z,14.16
2018-11-06T14:12:47.023Z,14.17
2018-11-06T14:15:16.426Z,14.16
2018-11-06T14:17:50.782Z,14.18
2018-11-06T14:20:20.686Z,14.16
2018-11-06T14:22:50.679Z,14.18
2018-11-06T14:25:20.130Z,14.14
2018-11-06T14:27:50.866Z,14.17
2018-11-06T14:30:20.629Z,14.17
2018-11-06T14:32:49.875Z,14.16
2018-11-06T14:35:19.797Z,14.14
2018-11-06T14:37:49.146Z,14.13
2018-11-06T14:40:22.575Z,14.10
2018-11-06T14:42:53.522Z,14.06
2018-11-06T14:45:22.637Z,14.01
2018-11-06T14:47:55.488Z,13.97
2018-11-06T14:50:24.774Z,13.94
2018-11-06T14:52:55.246Z,13.94
2018-11-06T14:55:25.012Z,13.92
2018-11-06T14:57:54.148Z,13.90
2018-11-06T15:00:23.444Z,13.88
2018-11-06T15:02:53.699Z,13.87
2018-11-06T15:05:23.792Z,13.87
2018-11-06T15:07:52.950Z,13.86
2018-11-06T15:10:22.951Z,13.82
2018-11-06T15:12:52.672Z,13.78
2018-11-06T15:15:22.583Z,13.77
2018-11-06T15:17:51.737Z,13.71
2018-11-06T15:20:22.949Z,13.70
2018-11-06T15:22:52.224Z,13.66
2018-11-06T15:25:21.480Z,13.61
2018-11-06T15:27:50.724Z,13.56
2018-11-06T15:30:20.222Z,13.49
2018-11-06T15:32:50.994Z,13.43
2018-11-06T15:35:21.372Z,13.39
2018-11-06T15:37:50.463Z,13.35
2018-11-06T15:40:20.510Z,13.33
2018-11-06T15:42:49.607Z,13.29
2018-11-06T15:45:20.614Z,13.27
2018-11-06T15:47:50.600Z,13.25
2018-11-06T15:50:21.414Z,13.24
2018-11-06T15:52:51.674Z,13.20
2018-11-06T15:55:21.875Z,13.19
2018-11-06T15:57:51.942Z,13.15
2018-11-06T16:00:22.557Z,13.12
2018-11-06T16:02:51.982Z,13.10
2018-11-06T16:05:21.240Z,13.09
2018-11-06T16:07:50.656Z,13.06
2018-11-06T16:10:21.207Z,13.04
2018-11-06T16:12:50.436Z,12.96
2018-11-06T16:15:19.626Z,12.95
2018-11-06T16:17:48.827Z,12.95
2018-11-06T16:20:20.575Z,12.97
2018-11-06T16:22:49.869Z,12.97
2018-11-06T16:25:19.685Z,12.99
2018-11-06T16:27:49.026Z,13.00
2018-11-06T16:30:20.296Z,12.99
2018-11-06T16:32:49.488Z,12.97
2018-11-06T16:35:19.993Z,12.97
2018-11-06T16:37:49.492Z,12.98
2018-11-06T16:40:19.151Z,12.98
2018-11-06T16:42:48.897Z,12.98
2018-11-06T16:45:20.348Z,12.99
2018-11-06T16:47:50.352Z,12.98
2018-11-06T16:50:19.785Z,13.00
2018-11-06T16:52:49.011Z,13.00
2018-11-06T16:55:19.285Z,13.00
2018-11-06T16:57:48.425Z,13.00
2018-11-06T17:00:19.923Z,13.01
2018-11-06T17:02:48.891Z,13.02
2018-11-06T17:05:18.004Z,13.03
2018-11-06T17:07:47.492Z,13.05
2018-11-06T17:10:17.277Z,13.05
2018-11-06T17:12:46.405Z,13.02
2018-11-06T17:15:19.525Z,13.06
2018-11-06T17:17:49.713Z,13.07
2018-11-06T17:20:20.501Z,13.09
2018-11-06T17:22:50.644Z,13.11
2018-11-06T17:25:21.020Z,13.14
2018-11-06T17:27:50.180Z,13.17
2018-11-06T17:30:21.240Z,13.17
2018-11-06T17:32:50.409Z,13.18
2018-11-06T17:35:20.580Z,13.20
2018-11-06T17:37:49.817Z,13.22
2018-11-06T17:40:20.613Z,13.25
2018-11-06T17:42:49.872Z,13.27
2018-11-06T17:45:21.442Z,13.28
2018-11-06T17:47:51.420Z,13.28
2018-11-06T17:50:22.020Z,13.26
2018-11-06T17:52:51.482Z,13.28
2018-11-06T17:55:21.867Z,13.27
2018-11-06T17:57:51.035Z,13.29
2018-11-06T18:00:22.144Z,13.28
2018-11-06T18:02:51.322Z,13.29
2018-11-06T18:05:22.229Z,13.29
2018-11-06T18:07:51.698Z,13.28
2018-11-06T18:10:21.539Z,13.27
2018-11-06T18:12:51.728Z,13.27
2018-11-06T18:15:20.972Z,13.27
2018-11-06T18:17:51.288Z,13.28
2018-11-06T18:20:20.367Z,13.30
2018-11-06T18:22:49.756Z,13.30
2018-11-06T18:25:19.954Z,13.30
2018-11-06T18:27:53.427Z,13.31
2018-11-06T18:30:28.631Z,13.32
2018-11-06T18:32:57.921Z,13.32
2018-11-06T18:35:27.630Z,13.31
2018-11-06T18:37:57.340Z,13.30
2018-11-06T18:40:26.493Z,13.29
2018-11-06T18:42:56.556Z,13.29
2018-11-06T18:45:26.107Z,13.28
2018-11-06T18:47:55.817Z,13.27
2018-11-06T18:50:25.045Z,13.26
2018-11-06T18:52:54.294Z,13.26
2018-11-06T18:55:23.435Z,13.25
2018-11-06T18:57:52.556Z,13.25
2018-11-06T19:00:22.947Z,13.25
2018-11-06T19:02:53.188Z,13.27
2018-11-06T19:05:23.619Z,13.28
2018-11-06T19:07:52.815Z,13.27
2018-11-06T19:10:21.963Z,13.28
2018-11-06T19:12:51.067Z,13.27
2018-11-06T19:15:21.636Z,13.28
2018-11-06T19:17:51.740Z,13.27
2018-11-06T19:20:22.021Z,13.29
2018-11-06T19:22:51.181Z,13.35
2018-11-06T19:25:24.727Z,13.39
2018-11-06T19:27:53.840Z,13.43
2018-11-06T19:30:23.790Z,13.43
2018-11-06T19:32:53.903Z,13.43
2018-11-06T19:35:24.196Z,13.40
2018-11-06T19:37:53.266Z,13.39
2018-11-06T19:40:27.615Z,13.39
2018-11-06T19:42:57.981Z,13.39
2018-11-06T19:45:28.049Z,13.39
2018-11-06T19:47:57.912Z,13.39
2018-11-06T19:50:27.136Z,13.35
2018-11-06T19:52:57.261Z,13.40
2018-11-06T19:55:26.273Z,13.40
2018-11-06T19:57:55.525Z,13.40
2018-11-06T20:00:24.676Z,13.40
2018-11-06T20:02:54.499Z,13.40
2018-11-06T20:05:23.733Z,13.40
2018-11-06T20:07:53.300Z,13.40
2018-11-06T20:10:24.028Z,13.39
2018-11-06T20:12:54.241Z,13.40
2018-11-06T20:15:23.430Z,13.41
2018-11-06T20:17:52.553Z,13.41
2018-11-06T20:20:23.327Z,13.41
2018-11-06T20:22:52.780Z,13.43
2018-11-06T20:25:25.141Z,13.44
2018-11-06T20:27:55.384Z,13.45
2018-11-06T20:30:25.969Z,13.47
2018-11-06T20:32:55.817Z,13.47
2018-11-06T20:35:26.751Z,13.47
2018-11-06T20:37:55.969Z,13.46
2018-11-06T20:40:26.476Z,13.47
2018-11-06T20:42:55.659Z,13.44
2018-11-06T20:45:25.382Z,13.44
2018-11-06T20:47:55.098Z,13.43
2018-11-06T20:50:25.423Z,13.43
2018-11-06T20:52:54.536Z,13.42
2018-11-06T20:55:23.689Z,13.41
2018-11-06T20:57:52.873Z,13.41
2018-11-06T21:00:28.565Z,13.40
2018-11-06T21:02:59.313Z,13.39
2018-11-06T21:05:28.589Z,13.39
2018-11-06T21:07:58.497Z,13.40
2018-11-06T21:10:32.444Z,13.40
2018-11-06T21:13:01.632Z,13.41
2018-11-06T21:15:30.799Z,13.42
2018-11-06T21:18:00.185Z,13.44
2018-11-06T21:20:29.261Z,13.45
2018-11-06T21:22:58.626Z,13.47
2018-11-06T21:25:28.045Z,13.49
2018-11-06T21:27:56.998Z,13.50
2018-11-06T21:30:26.457Z,13.51
2018-11-06T21:32:56.247Z,13.53
2018-11-06T21:35:25.407Z,13.52
2018-11-06T21:37:54.508Z,13.52
2018-11-06T21:40:23.604Z,13.49
2018-11-06T21:42:54.884Z,13.51
2018-11-06T21:45:25.611Z,13.52
2018-11-06T21:47:54.726Z,13.51
2018-11-06T21:50:23.830Z,13.51
2018-11-06T21:52:53.058Z,13.52
2018-11-06T21:55:26.504Z,13.52
2018-11-06T21:57:56.443Z,13.52
2018-11-06T22:00:25.731Z,13.53
2018-11-06T22:02:55.482Z,13.53
2018-11-06T22:05:27.049Z,13.53
2018-11-06T22:07:56.327Z,13.56
2018-11-06T22:10:25.563Z,13.55
2018-11-06T22:12:54.805Z,13.55
2018-11-06T22:15:25.250Z,13.55
2018-11-06T22:17:54.528Z,13.54
2018-11-06T22:20:23.720Z,13.54
2018-11-06T22:22:53.807Z,13.53
2018-11-06T22:25:22.961Z,13.53
2018-11-06T22:27:52.164Z,13.53
2018-11-06T22:30:21.662Z,13.54
2018-11-06T22:32:50.846Z,13.54
2018-11-06T22:35:20.559Z,13.54
2018-11-06T22:37:49.785Z,13.53
2018-11-06T22:40:20.492Z,13.56
2018-11-06T22:42:50.832Z,13.57
2018-11-06T22:45:20.054Z,13.56
2018-11-06T22:47:49.113Z,13.57
2018-11-06T22:50:18.934Z,13.58
2018-11-06T22:52:48.842Z,13.57
2018-11-06T22:55:18.347Z,13.58
2018-11-06T22:57:48.028Z,13.57
2018-11-06T23:01:21.836Z,13.56
2018-11-06T23:03:51.547Z,13.54
2018-11-06T23:06:21.416Z,13.51
2018-11-06T23:08:50.557Z,13.48
2018-11-06T23:11:19.678Z,13.46
2018-11-06T23:13:48.781Z,13.45
2018-11-06T23:16:18.490Z,13.44
2018-11-06T23:18:48.965Z,13.45
2018-11-06T23:21:18.107Z,13.46
2018-11-06T23:23:58.130Z,13.46
2018-11-06T23:26:27.749Z,13.46
2018-11-06T23:29:10.154Z,13.46
2018-11-06T23:31:55.732Z,13.47
2018-11-06T23:34:41.727Z,13.47
2018-11-06T23:37:11.248Z,13.47
2018-11-06T23:39:44.015Z,13.48
2018-11-06T23:42:29.719Z,13.49
2018-11-06T23:45:16.730Z,13.48
2018-11-06T23:48:05.809Z,13.48
2018-11-06T23:50:53.136Z,13.49
2018-11-06T23:53:39.825Z,13.48
2018-11-06T23:56:27.045Z,13.48
2018-11-06T23:59:10.848Z,13.48
